Language: 


Des rapports , des résumés tant et plus, au choix de chacun....


Données statistiques de la station
Quotidien Rapport Mars 4, 2017 Unités:  Anglais    Métrique   les deux
« Précédent Jour
Suivant Jour »
Quotidien Hebdomadaire Mensuel Annuel Actuel
  Haut: Bas: Moyen:
Température: 51.6 °F 44.2 °F 48.2 °F
Pt de rosée: 49.1 °F 43.2 °F 46.8 °F
Humidité: 98 % 82 % 95 %
Vitesse du vent: 15.2 mph 0 mph 4.9 mph
Rafales: 17.7 mph - -
Vent:- - SW
Pression: 29.4 in 29.2 in -
Précipitation: 0.23 in    
Historical Graphs
 
 
Données statistiques pour Mars 4, 2017
Heure Température Point de rosée Pression Vent Vitesse du vent Refales Humidité Pluie (taux horaire)
00:03 50.7 °F 46 °F 29.3 in South 2.9 mph 8.7 mph 84 % 0 in
00:08 50.7 °F 46 °F 29.3 in South 3.4 mph 8.7 mph 84 % 0 in
00:13 50.5 °F 45.9 °F 29.3 in South 4.9 mph 8.5 mph 84 % 0 in
00:18 50.4 °F 45.7 °F 29.3 in SSW 4.3 mph 6.5 mph 84 % 0 in
00:23 50.4 °F 45.7 °F 29.3 in South 6 mph 7.2 mph 84 % 0 in
00:28 50.5 °F 46.2 °F 29.3 in South 7.4 mph 9.8 mph 85 % 0 in
00:33 50.9 °F 46.6 °F 29.3 in SSW 7.2 mph 9.8 mph 85 % 0 in
00:38 50.9 °F 46.6 °F 29.3 in South 5.6 mph 9.6 mph 85 % 0 in
00:43 50.9 °F 46.6 °F 29.3 in SSW 6.5 mph 8.5 mph 85 % 0 in
00:48 51.1 °F 46.4 °F 29.3 in South 8.1 mph 8.5 mph 84 % 0 in
00:53 51.3 °F 46.6 °F 29.3 in South 6.3 mph 9.8 mph 84 % 0 in
00:58 51.3 °F 46.6 °F 29.3 in SSW 7.4 mph 10.3 mph 84 % 0 in
01:03 51.3 °F 46.6 °F 29.3 in SSW 4.9 mph 10.3 mph 84 % 0 in
01:08 51.1 °F 46.4 °F 29.3 in South 7.6 mph 8.7 mph 84 % 0 in
01:13 51.1 °F 46.4 °F 29.3 in South 5.8 mph 8.5 mph 84 % 0 in
01:18 51.1 °F 46.4 °F 29.3 in South 6.5 mph 8.9 mph 84 % 0 in
01:23 51.1 °F 46.4 °F 29.3 in SSW 7.8 mph 8.9 mph 84 % 0 in
01:28 51.3 °F 46.6 °F 29.3 in SSW 5.4 mph 10.7 mph 84 % 0 in
01:33 51.4 °F 46.4 °F 29.3 in South 4.3 mph 10.7 mph 83 % 0 in
01:38 51.6 °F 46.6 °F 29.3 in WSW 6.3 mph 10.7 mph 83 % 0 in
01:43 51.6 °F 46.6 °F 29.3 in SSW 9.6 mph 9.6 mph 83 % 0 in
01:48 51.6 °F 46.2 °F 29.3 in West 12.3 mph 14.5 mph 82 % 0 in
01:53 51.3 °F 46.2 °F 29.3 in West 10.3 mph 14.5 mph 83 % 0 in
01:58 50.9 °F 45.9 °F 29.3 in WSW 4.9 mph 12.3 mph 83 % 0 in
02:03 50.5 °F 45.7 °F 29.3 in WSW 3.8 mph 10.1 mph 83 % 0 in
02:08 50.4 °F 45.7 °F 29.3 in WSW 3.6 mph 5.8 mph 84 % 0 in
02:13 50 °F 45.3 °F 29.3 in Calm   5.8 mph 84 % 0 in
02:18 49.6 °F 45 °F 29.3 in Calm   3.4 mph 84 % 0 in
02:23 49.6 °F 45.3 °F 29.3 in Calm   3.4 mph 85 % 0 in
02:28 49.6 °F 45.3 °F 29.3 in South 3.4 mph 4.5 mph 85 % 0 in
02:33 49.6 °F 45.3 °F 29.3 in Calm   5.8 mph 85 % 0 in
02:38 49.6 °F 45.7 °F 29.3 in SSE 1.6 mph 5.8 mph 86 % 0 in
02:43 49.6 °F 45.7 °F 29.3 in Calm   4.5 mph 86 % 0 in
02:48 49.5 °F 45.3 °F 29.3 in SSE 3.1 mph 4.3 mph 86 % 0 in
02:53 49.5 °F 45.3 °F 29.3 in SE 2.9 mph 4.9 mph 86 % 0 in
02:58 49.5 °F 45.9 °F 29.3 in SE 4 mph 4.9 mph 87 % 0 in
03:03 49.6 °F 45.9 °F 29.3 in SSE 3.6 mph 6 mph 87 % 0 in
03:08 49.8 °F 46 °F 29.2 in South 4 mph 5.6 mph 87 % 0 in
03:13 50.4 °F 46.9 °F 29.2 in SSE 5.6 mph 7.6 mph 88 % 0 in
03:15 50.4 °F 47.1 °F 29.2 in South 5.4 mph 8.5 mph 89 % 0 in
03:20 50.5 °F 47.5 °F 29.2 in Calm   8.5 mph 89 % 0 in
03:25 50.7 °F 47.7 °F 29.3 in Calm   9.6 mph 89 % 0 in
03:30 50.7 °F 47.7 °F 29.3 in SSE 5.4 mph 9.6 mph 89 % 0 in
03:35 50.7 °F 47.7 °F 29.3 in SSE 6 mph 9.8 mph 89 % 0 in
03:40 50.7 °F 47.8 °F 29.2 in South 6 mph 9.8 mph 90 % 0 in
03:45 50.7 °F 47.8 °F 29.2 in SSW 11 mph 11 mph 90 % 0 in
03:50 50.9 °F 48.6 °F 29.2 in SSE 8.1 mph 13 mph 92 % 0 in
03:55 50.9 °F 48.6 °F 29.3 in SSW 13.4 mph 15.4 mph 92 % 0 in
04:00 50.9 °F 48.9 °F 29.3 in South 10.7 mph 15.4 mph 93 % 0 in
04:05 50.9 °F 48.9 °F 29.3 in SSE 15.2 mph 15.2 mph 93 % 0 in
04:10 50.7 °F 48.7 °F 29.3 in SSE 9.8 mph 15.2 mph 93 % 0 in
04:15 50.7 °F 48.7 °F 29.3 in South 15.2 mph 15.2 mph 93 % 0 in
04:20 50.7 °F 48.9 °F 29.3 in SSE 9.8 mph 15.4 mph 94 % 0 in
04:25 50.5 °F 48.9 °F 29.3 in SW 10.3 mph 15.4 mph 94 % 0 in
04:30 50.5 °F 49.1 °F 29.3 in SSW 8.9 mph 13.2 mph 95 % 0 in
04:35 50.4 °F 48.9 °F 29.3 in SSE 7.6 mph 13.2 mph 95 % 0.01 in
04:40 50.4 °F 48.9 °F 29.3 in SSE 10.1 mph 14.8 mph 95 % 0.01 in
04:45 50.2 °F 49.1 °F 29.3 in SSW 12.8 mph 14.8 mph 96 % 0.01 in
04:50 50 °F 48.9 °F 29.3 in South 10.1 mph 14.3 mph 96 % 0.03 in
04:55 50 °F 48.9 °F 29.3 in South 7.4 mph 12.8 mph 96 % 0.03 in
05:00 49.8 °F 48.7 °F 29.3 in SSE 5.8 mph 12.5 mph 96 % 0.03 in
05:05 49.8 °F 48.7 °F 29.3 in South 7.6 mph 12.8 mph 96 % 0.03 in
05:10 49.8 °F 48.7 °F 29.3 in South 6.5 mph 12.8 mph 96 % 0.04 in
05:16 49.8 °F 48.9 °F 29.3 in SSE 11 mph 15.2 mph 97 % 0.04 in
05:21 49.8 °F 48.9 °F 29.3 in SSE 6 mph 15.2 mph 97 % 0.04 in
05:26 49.8 °F 48.9 °F 29.3 in SSE 11 mph 15.9 mph 97 % 0.04 in
05:31 49.8 °F 48.9 °F 29.3 in SSE 8.7 mph 15.9 mph 97 % 0.05 in
05:36 49.8 °F 48.9 °F 29.3 in South 5.6 mph 13.2 mph 97 % 0.04 in
05:41 49.8 °F 48.9 °F 29.3 in SSW 7.4 mph 14.5 mph 97 % 0.04 in
05:46 49.8 °F 48.9 °F 29.3 in SSW 6.3 mph 14.5 mph 97 % 0.04 in
05:51 49.6 °F 48.7 °F 29.3 in SSW 8.9 mph 12.5 mph 97 % 0.02 in
05:56 49.6 °F 48.7 °F 29.2 in South 6.5 mph 12.3 mph 97 % 0.02 in
06:01 49.6 °F 48.7 °F 29.2 in SSE 5.8 mph 11.2 mph 97 % 0.02 in
06:06 49.6 °F 48.7 °F 29.2 in SSE 8.1 mph 13.9 mph 97 % 0.03 in
06:11 49.6 °F 48.7 °F 29.2 in South 8.1 mph 17.7 mph 97 % 0.02 in
06:16 49.6 °F 48.7 °F 29.2 in South 7.8 mph 17.7 mph 97 % 0.02 in
06:21 49.5 °F 48.9 °F 29.2 in SSW 6.5 mph 11.9 mph 98 % 0.02 in
06:26 49.5 °F 48.9 °F 29.2 in SSW 1.3 mph 11.9 mph 98 % 0.02 in
06:31 49.5 °F 48.6 °F 29.2 in SSE 8.5 mph 12.3 mph 97 % 0.01 in
06:36 49.5 °F 48.9 °F 29.2 in South 10.3 mph 13 mph 98 % 0.01 in
06:41 49.5 °F 48.9 °F 29.2 in SSW 6 mph 13 mph 98 % 0.01 in
06:46 49.5 °F 48.9 °F 29.2 in SSW 7.4 mph 13 mph 98 % 0.01 in
06:51 49.5 °F 48.9 °F 29.2 in SSE 10.3 mph 13.2 mph 98 % 0.02 in
06:56 49.5 °F 48.9 °F 29.2 in WSW 6.3 mph 13.2 mph 98 % 0.02 in
07:01 49.5 °F 48.9 °F 29.2 in South 8.7 mph 10.3 mph 98 % 0.02 in
07:06 49.3 °F 48.7 °F 29.2 in SE 6.5 mph 11.4 mph 98 % 0.01 in
07:11 49.3 °F 48.7 °F 29.2 in South 3.6 mph 12.8 mph 98 % 0.02 in
07:16 49.3 °F 48.7 °F 29.2 in South 7.4 mph 12.8 mph 98 % 0.02 in
07:21 49.5 °F 48.9 °F 29.2 in SSE 9.6 mph 12.5 mph 98 % 0.02 in
07:26 49.5 °F 48.9 °F 29.2 in SSW 5.8 mph 12.5 mph 98 % 0.02 in
07:31 49.3 °F 48.7 °F 29.2 in South 6.3 mph 12.5 mph 98 % 0.02 in
07:36 49.3 °F 48.7 °F 29.2 in SSW 6 mph 13 mph 98 % 0.02 in
07:41 49.3 °F 48.7 °F 29.2 in SSE 6.3 mph 13.2 mph 98 % 0.02 in
07:46 49.3 °F 48.7 °F 29.2 in SE 10.5 mph 16.3 mph 98 % 0.02 in
07:51 49.3 °F 48.7 °F 29.2 in South 5.6 mph 17 mph 98 % 0.01 in
07:56 49.3 °F 48.7 °F 29.2 in South 8.7 mph 17 mph 98 % 0.01 in
08:01 49.3 °F 48.7 °F 29.2 in South 7.6 mph 16.8 mph 98 % 0.01 in
08:06 49.3 °F 48.7 °F 29.2 in SSE 5.8 mph 13 mph 98 % 0.01 in
08:11 49.3 °F 48.7 °F 29.2 in SSE 10.3 mph 13 mph 98 % 0 in
08:16 49.3 °F 48.7 °F 29.2 in SSW 4.7 mph 11.2 mph 98 % 0 in
08:21 49.3 °F 48.7 °F 29.2 in South 8.7 mph 10.5 mph 98 % 0 in
08:26 49.3 °F 48.7 °F 29.2 in SSE 8.1 mph 10.7 mph 98 % 0 in
08:31 49.3 °F 48.7 °F 29.2 in South 8.1 mph 12.3 mph 98 % 0 in
08:36 49.3 °F 48.7 °F 29.2 in South 6.3 mph 12.3 mph 98 % 0 in
08:41 49.3 °F 48.7 °F 29.2 in SSW 12.3 mph 15.2 mph 98 % 0 in
08:46 49.3 °F 48.7 °F 29.2 in SSW 7.8 mph 15.2 mph 98 % 0 in
08:51 49.3 °F 48.7 °F 29.2 in South 10.7 mph 14.8 mph 98 % 0 in
08:56 49.3 °F 48.6 °F 29.2 in South 8.7 mph 14.8 mph 97 % 0.01 in
09:02 49.3 °F 48.6 °F 29.2 in SW 6.3 mph 15.9 mph 97 % 0.01 in
09:07 49.5 °F 48.6 °F 29.2 in South 6 mph 15.9 mph 97 % 0.01 in
09:12 49.3 °F 48.6 °F 29.2 in SSW 5.6 mph 12.8 mph 97 % 0.01 in
09:17 49.3 °F 48.6 °F 29.2 in SSW 5.4 mph 12.8 mph 97 % 0.01 in
09:22 49.3 °F 48.6 °F 29.2 in SSW 5.8 mph 12.8 mph 97 % 0.01 in
09:27 49.3 °F 48.6 °F 29.2 in SSW 4.9 mph 10.1 mph 97 % 0.01 in
09:32 49.1 °F 48.4 °F 29.2 in WSW 6.3 mph 13.2 mph 97 % 0.01 in
09:37 49.1 °F 48.4 °F 29.2 in WSW 7.2 mph 13.2 mph 97 % 0.01 in
09:42 48.9 °F 48 °F 29.3 in WSW 10.3 mph 10.7 mph 97 % 0.01 in
09:47 48.7 °F 47.8 °F 29.3 in WSW 6.5 mph 10.7 mph 97 % 0.01 in
09:52 48.7 °F 47.8 °F 29.3 in WSW 7.4 mph 10.5 mph 97 % 0 in
09:57 48.6 °F 48 °F 29.2 in WSW 6 mph 10.5 mph 98 % 0 in
10:02 48.6 °F 48 °F 29.2 in WSW 4.9 mph 8.7 mph 98 % 0 in
10:07 48.6 °F 48 °F 29.2 in WSW 6.3 mph 7.4 mph 98 % 0 in
10:12 48.6 °F 48 °F 29.3 in West 6.3 mph 7.4 mph 98 % 0 in
10:17 48.6 °F 48 °F 29.3 in WSW 3.6 mph 7.6 mph 98 % 0 in
10:22 48.6 °F 48 °F 29.3 in WSW 6 mph 7.6 mph 98 % 0 in
10:27 48.7 °F 48.2 °F 29.2 in SW 3.8 mph 6.3 mph 98 % 0 in
10:32 48.7 °F 48.2 °F 29.2 in WSW 4.9 mph 6.3 mph 98 % 0 in
10:37 48.7 °F 48.2 °F 29.2 in WSW 4.3 mph 6.3 mph 98 % 0 in
10:42 48.7 °F 48.2 °F 29.2 in SW 3.6 mph 4.9 mph 98 % 0 in
10:47 48.9 °F 48.4 °F 29.2 in SW 4.9 mph 4.9 mph 98 % 0 in
10:52 48.9 °F 48.4 °F 29.2 in SW 4 mph 5.8 mph 98 % 0 in
10:57 48.9 °F 48.4 °F 29.2 in Calm   5.8 mph 98 % 0 in
11:02 48.9 °F 48.4 °F 29.2 in WSW 2.5 mph 4 mph 98 % 0 in
11:07 48.9 °F 48.4 °F 29.2 in WSW 4 mph 5.6 mph 98 % 0 in
11:12 48.7 °F 48.2 °F 29.2 in WSW 3.1 mph 5.6 mph 98 % 0 in
11:17 48.7 °F 48.2 °F 29.2 in SW 4 mph 4.7 mph 98 % 0 in
11:22 48.7 °F 48.2 °F 29.3 in SSW 2.9 mph 4.7 mph 98 % 0.01 in
11:27 48.7 °F 48.2 °F 29.3 in SW 4.3 mph 6 mph 98 % 0.01 in
11:32 48.7 °F 48.2 °F 29.3 in SW 3.6 mph 6 mph 98 % 0.01 in
11:37 48.7 °F 48.2 °F 29.2 in SW 2.2 mph 5.4 mph 98 % 0.01 in
11:42 48.9 °F 48.4 °F 29.2 in Calm   4.3 mph 98 % 0.01 in
11:47 48.9 °F 48.4 °F 29.2 in Calm   3.6 mph 98 % 0.01 in
11:52 49.1 °F 48.6 °F 29.2 in Calm   3.6 mph 98 % 0.03 in
11:57 49.1 °F 48.6 °F 29.2 in Calm   3.4 mph 98 % 0.03 in
12:02 49.3 °F 48.7 °F 29.2 in West 2.9 mph 4.3 mph 98 % 0.03 in
12:07 49.5 °F 48.9 °F 29.2 in WSW 3.6 mph 4.7 mph 98 % 0.03 in
12:12 49.5 °F 48.9 °F 29.2 in Calm   4.7 mph 98 % 0.03 in
12:17 49.5 °F 48.9 °F 29.2 in WSW 3.6 mph 5.8 mph 98 % 0.03 in
12:22 49.5 °F 48.9 °F 29.2 in WSW 5.6 mph 7.4 mph 98 % 0.01 in
12:27 49.3 °F 48.6 °F 29.2 in WSW 9.8 mph 10.5 mph 97 % 0.01 in
12:32 48.9 °F 48 °F 29.2 in WNW 5.4 mph 10.5 mph 97 % 0.01 in
12:37 48.9 °F 48 °F 29.2 in Calm   9.8 mph 97 % 0.01 in
12:42 48.9 °F 48 °F 29.2 in Calm   5.4 mph 97 % 0.01 in
12:47 49.3 °F 48.6 °F 29.2 in Calm   4 mph 97 % 0.03 in
12:52 49.3 °F 48.6 °F 29.2 in North 2.9 mph 4 mph 97 % 0.01 in
12:57 49.1 °F 48.4 °F 29.2 in Calm   3.4 mph 97 % 0.01 in
13:02 48.9 °F 48 °F 29.2 in Calm   3.1 mph 97 % 0.01 in
13:07 48.9 °F 48 °F 29.2 in Calm   2.2 mph 97 % 0.01 in
13:12 48.9 °F 48 °F 29.2 in Calm   3.8 mph 97 % 0.01 in
13:17 48.7 °F 47.8 °F 29.2 in Calm   3.8 mph 97 % 0.01 in
13:22 48.7 °F 47.8 °F 29.2 in NNW 2.7 mph 4.3 mph 97 % 0.01 in
13:27 48.9 °F 48 °F 29.2 in West 1.6 mph 4.3 mph 97 % 0.01 in
13:32 48.9 °F 48 °F 29.2 in Calm   3.8 mph 97 % 0.02 in
13:37 49.1 °F 48.4 °F 29.2 in NW 3.4 mph 5.6 mph 97 % 0.02 in
13:42 49.5 °F 48.6 °F 29.2 in West 4.9 mph 5.6 mph 97 % 0.02 in
13:47 49.5 °F 48.6 °F 29.2 in West 4 mph 5.6 mph 97 % 0.01 in
13:52 49.3 °F 48.6 °F 29.2 in WNW 3.1 mph 5.6 mph 97 % 0.01 in
13:57 49.1 °F 48.4 °F 29.2 in West 4.9 mph 5.6 mph 97 % 0.01 in
14:02 48.9 °F 48 °F 29.2 in West 4 mph 7.6 mph 97 % 0.01 in
14:07 48.6 °F 47.8 °F 29.3 in West 5.8 mph 7.6 mph 97 % 0.01 in
14:12 48.4 °F 47.7 °F 29.3 in West 6 mph 7.4 mph 97 % 0.01 in
14:17 48.4 °F 47.7 °F 29.3 in WNW 3.1 mph 7.8 mph 97 % 0.01 in
14:22 48.6 °F 47.8 °F 29.2 in WNW 3.4 mph 7.8 mph 97 % 0.02 in
14:27 48.7 °F 47.8 °F 29.2 in WSW 3.6 mph 7.4 mph 97 % 0.02 in
14:32 48.7 °F 47.8 °F 29.2 in WNW 5.8 mph 7.4 mph 97 % 0.01 in
14:37 48.7 °F 47.8 °F 29.2 in West 2.7 mph 7.6 mph 97 % 0.01 in
14:42 48.7 °F 47.8 °F 29.2 in West 3.4 mph 7.6 mph 97 % 0.01 in
14:47 48.6 °F 47.8 °F 29.2 in West 2 mph 5.6 mph 97 % 0.02 in
14:52 48.4 °F 47.7 °F 29.2 in Calm   6 mph 97 % 0.02 in
14:57 48.4 °F 47.7 °F 29.2 in Calm   6 mph 97 % 0.02 in
15:02 48.4 °F 47.7 °F 29.2 in NW 4.3 mph 6.3 mph 97 % 0.02 in
15:07 48.2 °F 47.5 °F 29.2 in WNW 2.9 mph 6.3 mph 97 % 0.02 in
15:12 48.2 °F 47.5 °F 29.2 in WSW 3.6 mph 6.5 mph 97 % 0.02 in
15:17 48 °F 47.1 °F 29.2 in West 4.9 mph 6.9 mph 97 % 0.02 in
15:22 48 °F 47.1 °F 29.3 in West 2.5 mph 6.9 mph 97 % 0.01 in
15:27 47.7 °F 46.9 °F 29.3 in WSW 4.7 mph 9.8 mph 97 % 0.01 in
15:32 47.3 °F 46.6 °F 29.3 in West 3.8 mph 9.8 mph 97 % 0.03 in
15:37 47.1 °F 46.4 °F 29.3 in West 2.9 mph 5.8 mph 97 % 0.04 in
15:42 46.9 °F 46.2 °F 29.3 in WNW 1.3 mph 4.9 mph 97 % 0.04 in
15:47 46.9 °F 46.2 °F 29.3 in West 3.4 mph 5.6 mph 97 % 0.04 in
15:52 46.9 °F 46.2 °F 29.3 in Calm   5.6 mph 97 % 0.04 in
15:57 46.9 °F 46.2 °F 29.3 in Calm   4.7 mph 97 % 0.05 in
16:02 46.9 °F 46.2 °F 29.3 in Calm   4.7 mph 97 % 0.05 in
16:07 47.1 °F 46.4 °F 29.3 in Calm   4.7 mph 97 % 0.05 in
16:12 47.3 °F 46.6 °F 29.3 in West 1.6 mph 4.3 mph 97 % 0.05 in
16:17 47.1 °F 46.4 °F 29.3 in NNW 2.2 mph 3.1 mph 97 % 0.05 in
16:22 46.9 °F 46.2 °F 29.3 in West 2.9 mph 3.8 mph 97 % 0.06 in
16:27 46.8 °F 46 °F 29.3 in WSW 2.9 mph 6.5 mph 97 % 0.06 in
16:32 46.6 °F 45.9 °F 29.3 in West 6.5 mph 6.5 mph 97 % 0.04 in
16:37 46.6 °F 45.9 °F 29.3 in WSW 4.3 mph 6.5 mph 97 % 0.03 in
16:42 46.6 °F 45.9 °F 29.3 in WSW 2.7 mph 6.5 mph 97 % 0.04 in
16:47 46.6 °F 45.7 °F 29.3 in Calm   5.6 mph 97 % 0.03 in
16:52 46.2 °F 45.5 °F 29.3 in Calm   3.4 mph 97 % 0.03 in
16:57 46.6 °F 45.7 °F 29.3 in West 2 mph 2 mph 97 % 0.02 in
17:02 46.6 °F 45.7 °F 29.3 in Calm   3.6 mph 97 % 0.02 in
17:07 46.6 °F 45.7 °F 29.3 in WSW 2 mph 3.6 mph 97 % 0.02 in
17:12 46.6 °F 45.7 °F 29.3 in Calm   2 mph 97 % 0.02 in
17:17 46.6 °F 45.7 °F 29.3 in Calm   2 mph 97 % 0.02 in
17:22 46.6 °F 45.7 °F 29.3 in Calm   2 mph 97 % 0.01 in
17:27 46.2 °F 45.5 °F 29.3 in Calm     97 % 0.01 in
17:32 46.6 °F 45.7 °F 29.3 in Calm     97 % 0.01 in
17:37 46.6 °F 45.7 °F 29.2 in Calm     97 % 0.01 in
17:42 46.6 °F 45.7 °F 29.2 in Calm     97 % 0 in
17:47 46.6 °F 45.7 °F 29.2 in Calm     97 % 0 in
17:52 46.6 °F 45.7 °F 29.3 in Calm     97 % 0 in
17:57 46.6 °F 45.7 °F 29.3 in Calm     97 % 0 in
18:02 46.6 °F 45.7 °F 29.3 in Calm     97 % 0 in
18:07 46.6 °F 45.7 °F 29.3 in Calm     97 % 0 in
18:12 46.2 °F 45.5 °F 29.3 in Calm     97 % 0 in
18:18 46 °F 45.3 °F 29.3 in Calm     97 % 0 in
18:23 46 °F 45.3 °F 29.3 in Calm     97 % 0 in
18:28 45.9 °F 45.1 °F 29.3 in SSW 4 mph 4 mph 97 % 0 in
18:33 45.9 °F 45.1 °F 29.3 in Calm   4 mph 97 % 0 in
18:38 45.9 °F 45.1 °F 29.3 in SSW 3.1 mph 4 mph 97 % 0 in
18:43 45.9 °F 45.1 °F 29.3 in SW 3.8 mph 4.7 mph 97 % 0 in
18:48 45.9 °F 45.1 °F 29.3 in SW 2.9 mph 6 mph 97 % 0 in
18:53 45.9 °F 45.3 °F 29.3 in SSW 4 mph 6 mph 98 % 0 in
18:58 45.9 °F 45.3 °F 29.3 in SSW 4.3 mph 6.3 mph 98 % 0 in
19:03 45.9 °F 45.3 °F 29.3 in SW 3.8 mph 6.3 mph 98 % 0 in
19:08 45.9 °F 45.3 °F 29.3 in SSW 3.6 mph 6.3 mph 98 % 0 in
19:13 45.9 °F 45.3 °F 29.3 in WSW 6 mph 6 mph 98 % 0 in
19:18 45.9 °F 45.3 °F 29.3 in SW 3.6 mph 6 mph 98 % 0 in
19:23 45.9 °F 45.3 °F 29.3 in SSW 4.9 mph 5.8 mph 98 % 0 in
19:28 45.9 °F 45.1 °F 29.3 in SW 5.8 mph 5.8 mph 98 % 0 in
19:33 45.9 °F 45.3 °F 29.3 in SW 4 mph 6.5 mph 98 % 0 in
19:38 45.9 °F 45.3 °F 29.3 in WSW 5.4 mph 7.8 mph 98 % 0 in
19:43 45.9 °F 45.3 °F 29.3 in SW 5.8 mph 8.1 mph 98 % 0 in
19:48 45.9 °F 45.3 °F 29.3 in SSW 5.8 mph 8.1 mph 98 % 0 in
19:53 45.9 °F 45.3 °F 29.3 in WSW 4.9 mph 7.2 mph 98 % 0 in
19:58 45.9 °F 45.3 °F 29.3 in WSW 5.6 mph 6.3 mph 98 % 0 in
20:03 45.9 °F 45.1 °F 29.3 in SW 3.8 mph 6 mph 98 % 0 in
20:08 45.9 °F 45.1 °F 29.3 in SW 3.8 mph 5.8 mph 98 % 0 in
20:13 45.9 °F 45.1 °F 29.3 in SW 3.6 mph 5.8 mph 98 % 0 in
20:18 45.7 °F 45.1 °F 29.3 in SSW 4.3 mph 5.8 mph 98 % 0 in
20:23 45.7 °F 45.1 °F 29.3 in SW 3.1 mph 5.4 mph 98 % 0 in
20:28 45.7 °F 45.1 °F 29.3 in SW 4.9 mph 6.5 mph 98 % 0 in
20:33 45.3 °F 45 °F 29.3 in SW 4 mph 6.5 mph 98 % 0 in
20:38 45.3 °F 45 °F 29.3 in SW 4.3 mph 5.6 mph 98 % 0 in
20:43 45.3 °F 45 °F 29.3 in SW 3.1 mph 6 mph 98 % 0 in
20:48 45.1 °F 44.8 °F 29.3 in SSW 3.6 mph 6 mph 98 % 0 in
20:53 45.1 °F 44.8 °F 29.3 in South 2.5 mph 4.3 mph 98 % 0 in
20:58 45.1 °F 44.4 °F 29.3 in South 3.6 mph 4 mph 98 % 0 in
21:03 45 °F 44.1 °F 29.3 in SSW 2.9 mph 4.3 mph 97 % 0 in
21:08 45 °F 44.1 °F 29.3 in South 3.6 mph 4.9 mph 97 % 0 in
21:13 44.8 °F 43.9 °F 29.3 in SSW 3.8 mph 4.9 mph 97 % 0 in
21:18 44.8 °F 43.9 °F 29.3 in South 3.1 mph 6.5 mph 97 % 0 in
21:23 44.4 °F 43.7 °F 29.3 in SSW 2.9 mph 6.5 mph 97 % 0 in
21:28 44.4 °F 43.7 °F 29.3 in South 2.9 mph 6 mph 97 % 0 in
21:33 44.2 °F 43.5 °F 29.3 in SSW 4.9 mph 6 mph 97 % 0 in
21:38 44.2 °F 43.5 °F 29.3 in SSW 3.8 mph 7.2 mph 97 % 0 in
21:43 44.2 °F 43.5 °F 29.3 in SSW 6 mph 7.6 mph 97 % 0 in
21:48 44.2 °F 43.5 °F 29.3 in SSW 6.3 mph 8.7 mph 97 % 0 in
21:53 44.2 °F 43.5 °F 29.3 in South 4.3 mph 8.7 mph 97 % 0 in
21:58 44.2 °F 43.5 °F 29.3 in SSW 4.9 mph 10.7 mph 97 % 0 in
22:03 44.2 °F 43.5 °F 29.3 in SSW 7.8 mph 10.7 mph 97 % 0 in
22:08 44.2 °F 43.5 °F 29.3 in SSW 6 mph 9.8 mph 97 % 0 in
22:13 44.2 °F 43.5 °F 29.3 in South 4.9 mph 9.8 mph 97 % 0 in
22:18 44.2 °F 43.5 °F 29.3 in SSW 7.8 mph 12.5 mph 97 % 0 in
22:23 44.2 °F 43.5 °F 29.3 in South 3.6 mph 12.5 mph 97 % 0 in
22:28 44.2 °F 43.5 °F 29.3 in SSW 7.8 mph 10.5 mph 97 % 0 in
22:33 44.2 °F 43.5 °F 29.3 in SSW 7.8 mph 10.5 mph 97 % 0 in
22:38 44.2 °F 43.5 °F 29.3 in SW 5.6 mph 8.7 mph 97 % 0 in
22:43 44.2 °F 43.3 °F 29.3 in SSW 5.6 mph 10.7 mph 96 % 0 in
22:48 44.2 °F 43.3 °F 29.3 in SW 6 mph 10.7 mph 96 % 0 in
22:53 44.2 °F 43.3 °F 29.4 in SW 8.1 mph 11 mph 96 % 0 in
22:58 44.2 °F 43.3 °F 29.4 in WSW 8.5 mph 13.6 mph 96 % 0 in
23:03 44.4 °F 43.5 °F 29.4 in SW 11.2 mph 13.6 mph 96 % 0 in
23:08 44.4 °F 43.5 °F 29.4 in SW 10.5 mph 15.2 mph 96 % 0 in
23:13 44.4 °F 43.2 °F 29.4 in SW 9.8 mph 15.2 mph 95 % 0 in
23:18 44.4 °F 43.2 °F 29.4 in WSW 7.4 mph 12.5 mph 95 % 0 in
23:23 44.8 °F 43.3 °F 29.4 in SW 8.7 mph 12.3 mph 95 % 0 in
23:28 44.8 °F 43.2 °F 29.4 in SSW 6 mph 11.9 mph 94 % 0 in
23:33 45 °F 43.3 °F 29.4 in SSW 7.6 mph 12.3 mph 94 % 0 in
23:38 45.1 °F 43.3 °F 29.4 in SW 12.3 mph 15.4 mph 94 % 0 in
23:43 45.1 °F 43.3 °F 29.4 in SSW 12.8 mph 15.4 mph 94 % 0 in
23:48 45.1 °F 43.3 °F 29.4 in SW 6.5 mph 13.2 mph 94 % 0 in
23:53 45.1 °F 43.2 °F 29.4 in SW 9.6 mph 12.8 mph 93 % 0 in
23:58 45.1 °F 43.3 °F 29.4 in SW 7.8 mph 11.9 mph 93 % 0 in
Le Gheer Warneton
Courtoisie de Weather Underground - 2.5 mb

Mise a jour : 17/12/2017 22:20:15
Généré par Cumulus 1.9.4 (1099)